Terminal Aerodrome Forecast
Issued by NWS

Home | Current Version | Previous Version | Text Only | Print | Product List | Glossary On
Versions: 1 2 3 4 5 6 7 8 9 10 11 12 13 14 15 16 17 18 19 20 21 22 23 24 25 26 27 28
000
FTUS41 KOKX 281735
TAFGON
TAF
KGON 281735Z 2818/2918 16010KT P6SM FEW025 SCT070 BKN200
     FM290000 13007KT 6SM BR SCT007 BKN100
     FM290800 08010KT P6SM -RA SCT007 OVC015
     FM291100 07012G20KT 5SM -RA OVC007
     FM291400 08015G21KT 2SM RA OVC007 PROB30 2914/2918 -TSRA SCT007
      BKN015CB=

USA.gov is the U.S. government's official web portal to all federal, state and local government web resources and services.